sensor_id;sensor_type;location;lat;lon;timestamp;pressure;altitude;pressure_sealevel;temperature;humidity
21980;BME280;11154;48.558;9.234;2024-02-21T00:01:30;98553.09;;;12.27;67.61
21980;BME280;11154;48.558;9.234;2024-02-21T00:03:32;98551.56;;;12.24;67.94
21980;BME280;11154;48.558;9.234;2024-02-21T00:05:34;98556.91;;;12.24;68.13
21980;BME280;11154;48.558;9.234;2024-02-21T00:07:35;98551.56;;;12.24;68.08
21980;BME280;11154;48.558;9.234;2024-02-21T00:09:36;98552.56;;;12.23;66.62
21980;BME280;11154;48.558;9.234;2024-02-21T00:11:39;98547.22;;;12.23;67.95
21980;BME280;11154;48.558;9.234;2024-02-21T00:13:40;98543.84;;;12.22;68.50
21980;BME280;11154;48.558;9.234;2024-02-21T00:15:42;98543.19;;;12.20;68.79
21980;BME280;11154;48.558;9.234;2024-02-21T00:17:44;98542.16;;;12.21;68.59
21980;BME280;11154;48.558;9.234;2024-02-21T00:19:45;98546.13;;;12.17;68.52
21980;BME280;11154;48.558;9.234;2024-02-21T00:21:47;98539.09;;;12.16;68.68
21980;BME280;11154;48.558;9.234;2024-02-21T00:23:49;98539.09;;;12.16;68.99
21980;BME280;11154;48.558;9.234;2024-02-21T00:25:50;98541.91;;;12.14;68.71
21980;BME280;11154;48.558;9.234;2024-02-21T00:27:53;98537.72;;;12.12;68.36
21980;BME280;11154;48.558;9.234;2024-02-21T00:29:54;98543.88;;;12.12;68.48
21980;BME280;11154;48.558;9.234;2024-02-21T00:31:56;98541.38;;;12.11;68.69
21980;BME280;11154;48.558;9.234;2024-02-21T00:33:57;98535.06;;;12.12;69.49
21980;BME280;11154;48.558;9.234;2024-02-21T00:35:59;98532.41;;;12.12;69.98
21980;BME280;11154;48.558;9.234;2024-02-21T00:38:01;98525.53;;;12.09;69.03
21980;BME280;11154;48.558;9.234;2024-02-21T00:40:04;98528.47;;;12.06;68.93
21980;BME280;11154;48.558;9.234;2024-02-21T00:42:06;98522.16;;;12.07;68.91
21980;BME280;11154;48.558;9.234;2024-02-21T00:44:09;98514.72;;;12.11;69.21
21980;BME280;11154;48.558;9.234;2024-02-21T00:46:11;98518.09;;;12.13;68.89
21980;BME280;11154;48.558;9.234;2024-02-21T00:48:12;98517.09;;;12.14;69.57
21980;BME280;11154;48.558;9.234;2024-02-21T00:50:14;98516.09;;;12.15;68.31
21980;BME280;11154;48.558;9.234;2024-02-21T00:52:16;98520.44;;;12.16;69.16
21980;BME280;11154;48.558;9.234;2024-02-21T00:54:18;98514.97;;;12.17;68.36
21980;BME280;11154;48.558;9.234;2024-02-21T00:56:19;98508.78;;;12.17;68.29
21980;BME280;11154;48.558;9.234;2024-02-21T00:58:21;98517.66;;;12.17;68.39
21980;BME280;11154;48.558;9.234;2024-02-21T01:00:24;98518.16;;;12.21;68.53
21980;BME280;11154;48.558;9.234;2024-02-21T01:02:26;98505.97;;;12.18;69.14
21980;BME280;11154;48.558;9.234;2024-02-21T01:04:26;98507.50;;;12.21;68.79
21980;BME280;11154;48.558;9.234;2024-02-21T01:06:28;98499.50;;;12.21;68.32
21980;BME280;11154;48.558;9.234;2024-02-21T01:08:30;98512.81;;;12.21;67.89
21980;BME280;11154;48.558;9.234;2024-02-21T01:10:31;98509.06;;;12.23;67.74
21980;BME280;11154;48.558;9.234;2024-02-21T01:12:33;98501.06;;;12.23;67.62
21980;BME280;11154;48.558;9.234;2024-02-21T01:14:34;98505.69;;;12.21;67.77
21980;BME280;11154;48.558;9.234;2024-02-21T01:16:37;98503.19;;;12.20;67.90
21980;BME280;11154;48.558;9.234;2024-02-21T01:18:39;98499.81;;;12.18;68.14
21980;BME280;11154;48.558;9.234;2024-02-21T01:20:41;98497.69;;;12.21;68.06
21980;BME280;11154;48.558;9.234;2024-02-21T01:22:42;98486.88;;;12.23;68.27
21980;BME280;11154;48.558;9.234;2024-02-21T01:24:44;98482.22;;;12.24;67.60
21980;BME280;11154;48.558;9.234;2024-02-21T01:26:45;98484.59;;;12.27;67.62
21980;BME280;11154;48.558;9.234;2024-02-21T01:28:47;98479.41;;;12.26;67.53
21980;BME280;11154;48.558;9.234;2024-02-21T01:30:48;98474.22;;;12.24;67.07
21980;BME280;11154;48.558;9.234;2024-02-21T01:32:51;98468.91;;;12.24;67.01
21980;BME280;11154;48.558;9.234;2024-02-21T01:34:53;98464.16;;;12.19;66.04
21980;BME280;11154;48.558;9.234;2024-02-21T01:36:54;98460.78;;;12.17;65.78
21980;BME280;11154;48.558;9.234;2024-02-21T01:38:56;98457.44;;;12.15;66.25
21980;BME280;11154;48.558;9.234;2024-02-21T01:40:58;98443.44;;;12.13;65.99
21980;BME280;11154;48.558;9.234;2024-02-21T01:42:59;98444.41;;;12.12;66.07
21980;BME280;11154;48.558;9.234;2024-02-21T01:45:01;98438.09;;;12.13;65.68
21980;BME280;11154;48.558;9.234;2024-02-21T01:47:02;98430.75;;;12.15;67.31
21980;BME280;11154;48.558;9.234;2024-02-21T01:49:05;98429.66;;;12.17;67.12
21980;BME280;11154;48.558;9.234;2024-02-21T01:51:08;98423.91;;;12.12;67.08
21980;BME280;11154;48.558;9.234;2024-02-21T01:53:10;98427.44;;;12.13;66.74
21980;BME280;11154;48.558;9.234;2024-02-21T01:55:12;98420.09;;;12.15;66.49
21980;BME280;11154;48.558;9.234;2024-02-21T01:57:15;98416.75;;;12.13;66.54
21980;BME280;11154;48.558;9.234;2024-02-21T01:59:17;98419.28;;;12.14;67.21
21980;BME280;11154;48.558;9.234;2024-02-21T02:01:20;98378.91;;;10.25;75.90
21980;BME280;11154;48.558;9.234;2024-02-21T02:03:22;98382.28;;;9.09;84.82
21980;BME280;11154;48.558;9.234;2024-02-21T02:05:27;98382.50;;;8.56;89.89
21980;BME280;11154;48.558;9.234;2024-02-21T02:07:28;98383.09;;;8.28;91.67
21980;BME280;11154;48.558;9.234;2024-02-21T02:09:30;98392.88;;;8.06;94.05
21980;BME280;11154;48.558;9.234;2024-02-21T02:11:32;98375.13;;;7.86;96.09
21980;BME280;11154;48.558;9.234;2024-02-21T02:13:33;98381.28;;;7.76;97.64
21980;BME280;11154;48.558;9.234;2024-02-21T02:15:38;98373.00;;;7.69;98.32
21980;BME280;11154;48.558;9.234;2024-02-21T02:17:39;98375.78;;;7.68;98.33
21980;BME280;11154;48.558;9.234;2024-02-21T02:19:41;98362.06;;;7.63;98.59
21980;BME280;11154;48.558;9.234;2024-02-21T02:21:46;98364.22;;;7.69;100.00
21980;BME280;11154;48.558;9.234;2024-02-21T02:23:55;98363.72;;;7.75;100.00
21980;BME280;11154;48.558;9.234;2024-02-21T02:25:57;98362.50;;;7.79;100.00
21980;BME280;11154;48.558;9.234;2024-02-21T02:27:58;98352.50;;;7.82;100.00
21980;BME280;11154;48.558;9.234;2024-02-21T02:30:00;98350.59;;;7.84;100.00
21980;BME280;11154;48.558;9.234;2024-02-21T02:32:02;98342.75;;;7.83;100.00
21980;BME280;11154;48.558;9.234;2024-02-21T02:34:02;98338.06;;;7.86;100.00
21980;BME280;11154;48.558;9.234;2024-02-21T02:36:05;98330.84;;;7.88;100.00
21980;BME280;11154;48.558;9.234;2024-02-21T02:38:07;98334.22;;;7.90;100.00
21980;BME280;11154;48.558;9.234;2024-02-21T02:40:10;98334.22;;;7.90;100.00
21980;BME280;11154;48.558;9.234;2024-02-21T02:42:13;98332.16;;;7.93;100.00
21980;BME280;11154;48.558;9.234;2024-02-21T02:44:14;98328.41;;;7.96;100.00
21980;BME280;11154;48.558;9.234;2024-02-21T02:46:16;98329.25;;;7.96;100.00
21980;BME280;11154;48.558;9.234;2024-02-21T02:48:18;98327.03;;;8.01;100.00
21980;BME280;11154;48.558;9.234;2024-02-21T02:50:20;98318.28;;;8.01;100.00
21980;BME280;11154;48.558;9.234;2024-02-21T02:52:21;98315.63;;;8.01;100.00
21980;BME280;11154;48.558;9.234;2024-02-21T02:54:22;98312.84;;;8.02;100.00
21980;BME280;11154;48.558;9.234;2024-02-21T02:56:25;98307.81;;;7.99;100.00
21980;BME280;11154;48.558;9.234;2024-02-21T02:58:28;98302.88;;;7.95;100.00
21980;BME280;11154;48.558;9.234;2024-02-21T03:00:30;98311.78;;;7.94;100.00
21980;BME280;11154;48.558;9.234;2024-02-21T03:02:31;98308.19;;;7.95;100.00
21980;BME280;11154;48.558;9.234;2024-02-21T03:04:32;98288.56;;;7.97;100.00
21980;BME280;11154;48.558;9.234;2024-02-21T03:06:33;98285.78;;;7.99;100.00
21980;BME280;11154;48.558;9.234;2024-02-21T03:08:35;98280.38;;;8.00;100.00
21980;BME280;11154;48.558;9.234;2024-02-21T03:10:37;98281.56;;;7.96;100.00
21980;BME280;11154;48.558;9.234;2024-02-21T03:12:39;98277.97;;;7.97;100.00
21980;BME280;11154;48.558;9.234;2024-02-21T03:14:40;98270.03;;;7.97;100.00
21980;BME280;11154;48.558;9.234;2024-02-21T03:16:42;98267.25;;;7.99;100.00
21980;BME280;11154;48.558;9.234;2024-02-21T03:18:43;98253.75;;;8.02;100.00
21980;BME280;11154;48.558;9.234;2024-02-21T03:20:45;98249.56;;;7.99;100.00
21980;BME280;11154;48.558;9.234;2024-02-21T03:22:47;98246.63;;;8.02;100.00
21980;BME280;11154;48.558;9.234;2024-02-21T03:24:47;98250.38;;;8.00;100.00
21980;BME280;11154;48.558;9.234;2024-02-21T03:26:49;98260.38;;;7.96;100.00
21980;BME280;11154;48.558;9.234;2024-02-21T03:28:52;98259.44;;;7.97;100.00
21980;BME280;11154;48.558;9.234;2024-02-21T03:30:54;98262.66;;;8.01;100.00
21980;BME280;11154;48.558;9.234;2024-02-21T03:32:54;98251.84;;;8.04;100.00
21980;BME280;11154;48.558;9.234;2024-02-21T03:34:56;98245.69;;;8.03;100.00
21980;BME280;11154;48.558;9.234;2024-02-21T03:36:57;98240.97;;;8.07;99.94
21980;BME280;11154;48.558;9.234;2024-02-21T03:38:59;98243.47;;;8.08;99.66
21980;BME280;11154;48.558;9.234;2024-02-21T03:41:01;98240.13;;;8.06;99.41
21980;BME280;11154;48.558;9.234;2024-02-21T03:43:03;98244.44;;;8.07;99.65
21980;BME280;11154;48.558;9.234;2024-02-21T03:45:08;98244.84;;;8.03;99.74
21980;BME280;11154;48.558;9.234;2024-02-21T03:47:09;98239.41;;;8.04;99.84
21980;BME280;11154;48.558;9.234;2024-02-21T03:49:11;98232.44;;;8.03;99.76
21980;BME280;11154;48.558;9.234;2024-02-21T03:51:13;98236.50;;;8.07;99.81
21980;BME280;11154;48.558;9.234;2024-02-21T03:53:15;98229.66;;;8.05;99.65
21980;BME280;11154;48.558;9.234;2024-02-21T03:55:17;98231.34;;;8.06;99.52
21980;BME280;11154;48.558;9.234;2024-02-21T03:57:18;98226.19;;;8.04;99.50
21980;BME280;11154;48.558;9.234;2024-02-21T03:59:19;98228.09;;;8.02;99.41
21980;BME280;11154;48.558;9.234;2024-02-21T04:01:22;98261.16;;;8.89;97.92
21980;BME280;11154;48.558;9.234;2024-02-21T04:03:23;98266.63;;;9.46;93.95
21980;BME280;11154;48.558;9.234;2024-02-21T04:05:24;98273.13;;;9.81;90.73
21980;BME280;11154;48.558;9.234;2024-02-21T04:07:26;98268.84;;;10.08;87.76
21980;BME280;11154;48.558;9.234;2024-02-21T04:09:27;98271.63;;;10.35;85.23
21980;BME280;11154;48.558;9.234;2024-02-21T04:11:29;98283.50;;;10.60;83.93
21980;BME280;11154;48.558;9.234;2024-02-21T04:13:30;98288.06;;;10.77;82.28
21980;BME280;11154;48.558;9.234;2024-02-21T04:15:32;98290.81;;;10.94;80.89
21980;BME280;11154;48.558;9.234;2024-02-21T04:17:36;98284.88;;;11.09;80.21
21980;BME280;11154;48.558;9.234;2024-02-21T04:19:37;98287.88;;;11.24;79.90
21980;BME280;11154;48.558;9.234;2024-02-21T04:21:38;98279.69;;;11.35;78.69
21980;BME280;11154;48.558;9.234;2024-02-21T04:23:40;98273.22;;;11.47;77.86
21980;BME280;11154;48.558;9.234;2024-02-21T04:25:40;98264.34;;;11.55;76.31
21980;BME280;11154;48.558;9.234;2024-02-21T04:27:42;98256.47;;;11.63;75.25
21980;BME280;11154;48.558;9.234;2024-02-21T04:29:44;98249.69;;;11.69;74.55
21980;BME280;11154;48.558;9.234;2024-02-21T04:31:45;98238.56;;;11.73;74.21
21980;BME280;11154;48.558;9.234;2024-02-21T04:33:48;98239.81;;;11.79;73.82
21980;BME280;11154;48.558;9.234;2024-02-21T04:35:50;98239.34;;;11.83;73.32
21980;BME280;11154;48.558;9.234;2024-02-21T04:37:52;98236.25;;;11.88;73.12
21980;BME280;11154;48.558;9.234;2024-02-21T04:39:53;98228.91;;;11.90;72.83
21980;BME280;11154;48.558;9.234;2024-02-21T04:41:55;98214.59;;;11.91;72.53
21980;BME280;11154;48.558;9.234;2024-02-21T04:43:57;98220.47;;;11.94;72.11
21980;BME280;11154;48.558;9.234;2024-02-21T04:45:58;98216.81;;;11.95;72.21
21980;BME280;11154;48.558;9.234;2024-02-21T04:48:00;98217.09;;;11.92;72.27
21980;BME280;11154;48.558;9.234;2024-02-21T04:50:03;98224.56;;;11.89;71.89
21980;BME280;11154;48.558;9.234;2024-02-21T04:52:06;98226.09;;;11.74;71.22
21980;BME280;11154;48.558;9.234;2024-02-21T04:54:07;98217.75;;;11.69;70.84
21980;BME280;11154;48.558;9.234;2024-02-21T04:56:09;98200.19;;;11.66;71.23
21980;BME280;11154;48.558;9.234;2024-02-21T04:58:11;98197.41;;;11.68;71.16
21980;BME280;11154;48.558;9.234;2024-02-21T05:00:13;98194.59;;;11.69;70.86
21980;BME280;11154;48.558;9.234;2024-02-21T05:02:14;98193.44;;;11.72;70.78
21980;BME280;11154;48.558;9.234;2024-02-21T05:04:16;98191.47;;;11.74;70.19
21980;BME280;11154;48.558;9.234;2024-02-21T05:06:19;98202.81;;;11.76;70.21
21980;BME280;11154;48.558;9.234;2024-02-21T05:08:21;98205.69;;;11.82;73.22
21980;BME280;11154;48.558;9.234;2024-02-21T05:10:22;98210.22;;;11.82;71.16
21980;BME280;11154;48.558;9.234;2024-02-21T05:12:23;98206.16;;;11.78;70.84
21980;BME280;11154;48.558;9.234;2024-02-21T05:14:24;98200.28;;;11.74;71.41
21980;BME280;11154;48.558;9.234;2024-02-21T05:16:27;98197.78;;;11.73;70.78
21980;BME280;11154;48.558;9.234;2024-02-21T05:18:28;98191.22;;;11.67;69.94
21980;BME280;11154;48.558;9.234;2024-02-21T05:20:30;98198.84;;;11.62;69.56
21980;BME280;11154;48.558;9.234;2024-02-21T05:22:33;98205.31;;;11.60;69.30
21980;BME280;11154;48.558;9.234;2024-02-21T05:24:34;98208.13;;;11.58;71.01
21980;BME280;11154;48.558;9.234;2024-02-21T05:26:36;98208.41;;;11.55;70.25
21980;BME280;11154;48.558;9.234;2024-02-21T05:28:38;98216.25;;;11.57;70.36
21980;BME280;11154;48.558;9.234;2024-02-21T05:30:39;98211.34;;;11.62;70.13
21980;BME280;11154;48.558;9.234;2024-02-21T05:32:43;98212.53;;;11.67;69.62
21980;BME280;11154;48.558;9.234;2024-02-21T05:34:48;98208.72;;;11.70;69.12
21980;BME280;11154;48.558;9.234;2024-02-21T05:36:50;98205.94;;;11.71;69.06
21980;BME280;11154;48.558;9.234;2024-02-21T05:38:51;98208.72;;;11.70;69.07
21980;BME280;11154;48.558;9.234;2024-02-21T05:40:53;98202.28;;;11.72;68.78
21980;BME280;11154;48.558;9.234;2024-02-21T05:42:55;98193.97;;;11.75;67.55
21980;BME280;11154;48.558;9.234;2024-02-21T05:44:58;98197.50;;;11.76;67.74
21980;BME280;11154;48.558;9.234;2024-02-21T05:46:59;98193.16;;;11.75;68.05
21980;BME280;11154;48.558;9.234;2024-02-21T05:49:01;98186.84;;;11.76;67.57
21980;BME280;11154;48.558;9.234;2024-02-21T05:51:03;98179.34;;;11.79;67.83
21980;BME280;11154;48.558;9.234;2024-02-21T05:53:05;98185.91;;;11.85;68.49
21980;BME280;11154;48.558;9.234;2024-02-21T05:55:08;98183.56;;;11.82;67.80
21980;BME280;11154;48.558;9.234;2024-02-21T05:57:11;98179.34;;;11.79;67.76
21980;BME280;11154;48.558;9.234;2024-02-21T05:59:12;98173.09;;;11.88;75.25
21980;BME280;11154;48.558;9.234;2024-02-21T06:01:13;98165.13;;;11.88;75.64
21980;BME280;11154;48.558;9.234;2024-02-21T06:03:14;98167.25;;;11.85;72.93
21980;BME280;11154;48.558;9.234;2024-02-21T06:05:16;98173.03;;;11.80;69.79
21980;BME280;11154;48.558;9.234;2024-02-21T06:07:18;98176.00;;;11.77;69.40
21980;BME280;11154;48.558;9.234;2024-02-21T06:09:19;98163.97;;;11.73;68.13
21980;BME280;11154;48.558;9.234;2024-02-21T06:11:22;98168.47;;;11.73;67.34
21980;BME280;11154;48.558;9.234;2024-02-21T06:13:24;98157.75;;;11.65;67.84
21980;BME280;11154;48.558;9.234;2024-02-21T06:15:26;98163.50;;;11.60;68.33
21980;BME280;11154;48.558;9.234;2024-02-21T06:17:27;98157.53;;;11.58;68.26
21980;BME280;11154;48.558;9.234;2024-02-21T06:19:29;98165.66;;;11.57;68.45
21980;BME280;11154;48.558;9.234;2024-02-21T06:21:29;98166.50;;;11.57;68.54
21980;BME280;11154;48.558;9.234;2024-02-21T06:23:31;98170.53;;;11.61;68.58
21980;BME280;11154;48.558;9.234;2024-02-21T06:25:33;98165.06;;;11.63;67.99
21980;BME280;11154;48.558;9.234;2024-02-21T06:27:36;98175.56;;;11.64;67.88
21980;BME280;11154;48.558;9.234;2024-02-21T06:29:38;98167.41;;;11.66;66.02
21980;BME280;11154;48.558;9.234;2024-02-21T06:31:40;98169.25;;;11.65;65.73
21980;BME280;11154;48.558;9.234;2024-02-21T06:33:41;98151.88;;;11.61;66.20
21980;BME280;11154;48.558;9.234;2024-02-21T06:35:43;98155.84;;;11.57;66.94
21980;BME280;11154;48.558;9.234;2024-02-21T06:37:47;98152.66;;;11.54;68.20
21980;BME280;11154;48.558;9.234;2024-02-21T06:39:51;98163.72;;;11.49;68.80
21980;BME280;11154;48.558;9.234;2024-02-21T06:41:52;98167.53;;;11.47;69.29
21980;BME280;11154;48.558;9.234;2024-02-21T06:43:56;98162.19;;;11.47;69.34
21980;BME280;11154;48.558;9.234;2024-02-21T06:45:58;98168.34;;;11.48;69.27
21980;BME280;11154;48.558;9.234;2024-02-21T06:47:59;98161.91;;;11.50;69.37
21980;BME280;11154;48.558;9.234;2024-02-21T06:50:01;98184.78;;;11.52;69.07
21980;BME280;11154;48.558;9.234;2024-02-21T06:52:03;98177.59;;;11.53;69.24
21980;BME280;11154;48.558;9.234;2024-02-21T06:54:05;98182.03;;;11.62;69.15
21980;BME280;11154;48.558;9.234;2024-02-21T06:56:07;98178.06;;;11.66;68.93
21980;BME280;11154;48.558;9.234;2024-02-21T06:58:08;98186.75;;;11.68;67.99
21980;BME280;11154;48.558;9.234;2024-02-21T07:00:14;98183.09;;;11.69;68.25
21980;BME280;11154;48.558;9.234;2024-02-21T07:02:16;98176.75;;;11.70;68.17
21980;BME280;11154;48.558;9.234;2024-02-21T07:04:18;98174.94;;;11.70;68.63
21980;BME280;11154;48.558;9.234;2024-02-21T07:06:19;98168.75;;;11.70;68.74
21980;BME280;11154;48.558;9.234;2024-02-21T07:08:20;98167.13;;;11.69;68.50
21980;BME280;11154;48.558;9.234;2024-02-21T07:10:22;98170.75;;;11.68;69.52
21980;BME280;11154;48.558;9.234;2024-02-21T07:12:23;98170.75;;;11.68;69.03
21980;BME280;11154;48.558;9.234;2024-02-21T07:14:25;98175.13;;;11.69;69.10
21980;BME280;11154;48.558;9.234;2024-02-21T07:16:28;98169.63;;;11.70;69.55
21980;BME280;11154;48.558;9.234;2024-02-21T07:18:30;98152.78;;;11.70;69.39
21980;BME280;11154;48.558;9.234;2024-02-21T07:20:30;98154.28;;;11.90;69.33
21980;BME280;11154;48.558;9.234;2024-02-21T07:22:33;98153.38;;;11.99;67.81
21980;BME280;11154;48.558;9.234;2024-02-21T07:24:35;98160.69;;;11.97;67.99
21980;BME280;11154;48.558;9.234;2024-02-21T07:26:41;98166.19;;;11.95;67.79
21980;BME280;11154;48.558;9.234;2024-02-21T07:28:43;98162.97;;;11.92;68.02
21980;BME280;11154;48.558;9.234;2024-02-21T07:30:44;98156.13;;;11.89;67.88
21980;BME280;11154;48.558;9.234;2024-02-21T07:32:50;98166.09;;;11.87;69.12
21980;BME280;11154;48.558;9.234;2024-02-21T07:34:52;98155.22;;;11.81;69.52
21980;BME280;11154;48.558;9.234;2024-02-21T07:36:53;98144.25;;;11.84;69.60
21980;BME280;11154;48.558;9.234;2024-02-21T07:38:55;98148.75;;;11.83;69.63
21980;BME280;11154;48.558;9.234;2024-02-21T07:40:56;98151.44;;;11.83;69.84
21980;BME280;11154;48.558;9.234;2024-02-21T07:42:58;98149.59;;;11.84;70.35
21980;BME280;11154;48.558;9.234;2024-02-21T07:45:00;98144.25;;;11.84;70.53
21980;BME280;11154;48.558;9.234;2024-02-21T07:47:00;98151.25;;;11.85;71.10
21980;BME280;11154;48.558;9.234;2024-02-21T07:49:04;98155.97;;;11.91;71.19
21980;BME280;11154;48.558;9.234;2024-02-21T07:51:05;98142.19;;;11.95;71.00
21980;BME280;11154;48.558;9.234;2024-02-21T07:53:07;98135.53;;;11.99;70.80
21980;BME280;11154;48.558;9.234;2024-02-21T07:55:08;98121.56;;;11.97;70.75
21980;BME280;11154;48.558;9.234;2024-02-21T07:57:11;98135.25;;;12.02;70.48
21980;BME280;11154;48.558;9.234;2024-02-21T07:59:13;98129.75;;;12.04;69.93
21980;BME280;11154;48.558;9.234;2024-02-21T08:01:18;98122.97;;;12.09;69.86
21980;BME280;11154;48.558;9.234;2024-02-21T08:03:20;98114.00;;;12.10;69.27
21980;BME280;11154;48.558;9.234;2024-02-21T08:05:23;98115.88;;;12.18;69.18
21980;BME280;11154;48.558;9.234;2024-02-21T08:07:24;98113.56;;;12.23;69.00
21980;BME280;11154;48.558;9.234;2024-02-21T08:09:29;98106.25;;;12.24;68.73
21980;BME280;11154;48.558;9.234;2024-02-21T08:11:31;98107.59;;;12.28;68.59
21980;BME280;11154;48.558;9.234;2024-02-21T08:13:32;98107.28;;;12.31;68.87
21980;BME280;11154;48.558;9.234;2024-02-21T08:15:34;98102.78;;;12.32;69.08
21980;BME280;11154;48.558;9.234;2024-02-21T08:17:36;98097.28;;;12.33;69.87
21980;BME280;11154;48.558;9.234;2024-02-21T08:19:37;98097.97;;;12.35;69.84
21980;BME280;11154;48.558;9.234;2024-02-21T08:21:40;98092.34;;;12.38;70.02
21980;BME280;11154;48.558;9.234;2024-02-21T08:23:41;98092.00;;;12.41;71.31
21980;BME280;11154;48.558;9.234;2024-02-21T08:25:42;98084.34;;;12.46;71.61
21980;BME280;11154;48.558;9.234;2024-02-21T08:27:44;98087.72;;;12.48;71.57
21980;BME280;11154;48.558;9.234;2024-02-21T08:29:46;98086.38;;;12.52;71.69
21980;BME280;11154;48.558;9.234;2024-02-21T08:31:47;98080.06;;;12.53;72.35
21980;BME280;11154;48.558;9.234;2024-02-21T08:33:49;98078.75;;;12.57;72.65
21980;BME280;11154;48.558;9.234;2024-02-21T08:35:51;98071.06;;;12.54;72.54
21980;BME280;11154;48.558;9.234;2024-02-21T08:37:54;98075.09;;;12.58;72.48
21980;BME280;11154;48.558;9.234;2024-02-21T08:39:56;98074.75;;;12.61;72.59
21980;BME280;11154;48.558;9.234;2024-02-21T08:41:57;98062.75;;;12.65;72.68
21980;BME280;11154;48.558;9.234;2024-02-21T08:43:58;98066.13;;;12.67;72.04
21980;BME280;11154;48.558;9.234;2024-02-21T08:45:59;98067.31;;;12.73;72.27
21980;BME280;11154;48.558;9.234;2024-02-21T08:48:01;98066.16;;;12.75;72.76
21980;BME280;11154;48.558;9.234;2024-02-21T08:50:03;98061.81;;;12.74;71.98
21980;BME280;11154;48.558;9.234;2024-02-21T08:52:07;98063.13;;;12.78;71.53
21980;BME280;11154;48.558;9.234;2024-02-21T08:54:10;98063.00;;;12.80;71.29
21980;BME280;11154;48.558;9.234;2024-02-21T08:56:11;98064.81;;;12.79;71.49
21980;BME280;11154;48.558;9.234;2024-02-21T08:58:13;98063.50;;;12.83;71.78
21980;BME280;11154;48.558;9.234;2024-02-21T09:00:16;98056.16;;;12.85;71.73
21980;BME280;11154;48.558;9.234;2024-02-21T09:02:18;98054.22;;;12.87;71.19
21980;BME280;11154;48.558;9.234;2024-02-21T09:04:19;98060.22;;;12.89;71.75
21980;BME280;11154;48.558;9.234;2024-02-21T09:06:20;98049.53;;;12.97;71.65
21980;BME280;11154;48.558;9.234;2024-02-21T09:08:22;98051.91;;;13.00;71.62
21980;BME280;11154;48.558;9.234;2024-02-21T09:10:26;98047.25;;;13.02;71.46
21980;BME280;11154;48.558;9.234;2024-02-21T09:12:27;98045.22;;;13.04;71.10
21980;BME280;11154;48.558;9.234;2024-02-21T09:14:28;98036.91;;;13.07;70.31
21980;BME280;11154;48.558;9.234;2024-02-21T09:16:30;98036.56;;;13.10;70.63
21980;BME280;11154;48.558;9.234;2024-02-21T09:18:32;98029.44;;;13.18;71.80
21980;BME280;11154;48.558;9.234;2024-02-21T09:20:34;98032.75;;;13.20;70.97
21980;BME280;11154;48.558;9.234;2024-02-21T09:22:35;98031.56;;;13.23;70.55
21980;BME280;11154;48.558;9.234;2024-02-21T09:24:38;98026.22;;;13.23;69.41
21980;BME280;11154;48.558;9.234;2024-02-21T09:26:40;98024.25;;;13.25;70.36
21980;BME280;11154;48.558;9.234;2024-02-21T09:28:42;98024.25;;;13.25;69.43
21980;BME280;11154;48.558;9.234;2024-02-21T09:30:44;98025.91;;;13.26;69.67
21980;BME280;11154;48.558;9.234;2024-02-21T09:32:46;98020.22;;;13.29;69.45
21980;BME280;11154;48.558;9.234;2024-02-21T09:34:48;98017.91;;;13.34;69.66
21980;BME280;11154;48.558;9.234;2024-02-21T09:36:49;98014.56;;;13.32;68.85
21980;BME280;11154;48.558;9.234;2024-02-21T09:38:51;98016.06;;;13.34;69.26
21980;BME280;11154;48.558;9.234;2024-02-21T09:40:59;98011.22;;;13.38;69.53
21980;BME280;11154;48.558;9.234;2024-02-21T09:43:04;98001.88;;;13.42;69.59
21980;BME280;11154;48.558;9.234;2024-02-21T09:45:08;98004.22;;;13.45;70.04
21980;BME280;11154;48.558;9.234;2024-02-21T09:47:17;97999.69;;;13.45;70.18
21980;BME280;11154;48.558;9.234;2024-02-21T09:49:29;98008.06;;;13.50;70.08
21980;BME280;11154;48.558;9.234;2024-02-21T09:51:32;98000.69;;;13.52;70.30
21980;BME280;11154;48.558;9.234;2024-02-21T09:53:37;97996.03;;;13.54;70.68
21980;BME280;11154;48.558;9.234;2024-02-21T09:55:40;98000.88;;;13.59;70.09
21980;BME280;11154;48.558;9.234;2024-02-21T09:57:43;97990.00;;;13.60;69.47
21980;BME280;11154;48.558;9.234;2024-02-21T09:59:46;97985.16;;;13.64;68.74
21980;BME280;11154;48.558;9.234;2024-02-21T10:01:47;97988.53;;;13.66;67.94
21980;BME280;11154;48.558;9.234;2024-02-21T10:03:50;97974.81;;;13.68;68.22
21980;BME280;11154;48.558;9.234;2024-02-21T10:05:52;97978.16;;;13.70;67.32
21980;BME280;11154;48.558;9.234;2024-02-21T10:07:53;97985.31;;;13.78;67.24
21980;BME280;11154;48.558;9.234;2024-02-21T10:10:00;97988.84;;;13.78;66.09
21980;BME280;11154;48.558;9.234;2024-02-21T10:12:09;97981.13;;;13.83;67.18
21980;BME280;11154;48.558;9.234;2024-02-21T10:14:11;97983.81;;;13.83;65.54
21980;BME280;11154;48.558;9.234;2024-02-21T10:16:15;97974.44;;;13.87;66.10
21980;BME280;11154;48.558;9.234;2024-02-21T10:18:17;97975.41;;;13.94;66.26
21980;BME280;11154;48.558;9.234;2024-02-21T10:20:19;97966.88;;;13.99;66.84
21980;BME280;11154;48.558;9.234;2024-02-21T10:22:20;97970.06;;;14.02;66.68
21980;BME280;11154;48.558;9.234;2024-02-21T10:24:26;97961.66;;;14.05;65.94
21980;BME280;11154;48.558;9.234;2024-02-21T10:26:28;97961.34;;;14.08;66.38
21980;BME280;11154;48.558;9.234;2024-02-21T10:28:29;97950.31;;;14.11;65.39
21980;BME280;11154;48.558;9.234;2024-02-21T10:30:31;97948.81;;;14.17;65.50
21980;BME280;11154;48.558;9.234;2024-02-21T10:32:34;97945.25;;;14.24;66.40
21980;BME280;11154;48.558;9.234;2024-02-21T10:34:36;97936.56;;;14.30;65.11
21980;BME280;11154;48.558;9.234;2024-02-21T10:36:38;97934.13;;;14.43;66.32
21980;BME280;11154;48.558;9.234;2024-02-21T10:38:40;97929.75;;;14.50;65.01
21980;BME280;11154;48.558;9.234;2024-02-21T10:40:42;97933.75;;;14.54;64.28
21980;BME280;11154;48.558;9.234;2024-02-21T10:42:44;97922.34;;;14.60;65.62
21980;BME280;11154;48.558;9.234;2024-02-21T10:44:50;97921.81;;;14.64;64.25
21980;BME280;11154;48.558;9.234;2024-02-21T10:46:52;97911.94;;;14.65;65.18